Terminal Aerodrome Forecast
Issued by NWS Albuquerque, NM

Home | Current Version | Previous Version | Text Only | Print | Product List | Glossary On
Versions: 1 2 3 4 5 6 7 8 9 10 11 12 13 14 15 16
000
FTUS45 KABQ 031700 RRA
TAFABQ
TAF
KABQ 031758Z 0318/0418 24006KT P6SM FEW100 FEW200
     FM040000 23011KT P6SM VCTS SCT080CB BKN150
      TEMPO 0400/0402 VRB25G35KT -TSRA BKN080CB
     FM040300 31007KT P6SM SCT100 BKN200
     FM040800 VRB05KT P6SM FEW070 SCT120=

USA.gov is the U.S. government's official web portal to all federal, state and local government web resources and services.